Time;durP1;ratioP1;P1;durP2;ratioP2;P2;SDS_P1;SDS_P2;PMS_P1;PMS_P2;Temp;Humidity;BMP_temperature;BMP_pressure;BME280_temperature;BME280_humidity;BME280_pressure;Samples;Min_cycle;Max_cycle;Signal;HPM_P1;HPM_P2
2023/10/25 00:01:29;;;;;;;16.92;5.85;;;;;;;8.76;100.00;100155.75;6083141;19;20373;-70
2023/10/25 00:03:34;;;;;;;15.23;6.10;;;;;;;8.70;100.00;100148.19;6077536;19;21042;-70
2023/10/25 00:05:39;;;;;;;11.32;5.82;;;;;;;8.72;100.00;100148.13;6082059;19;20017;-69
2023/10/25 00:07:44;;;;;;;13.68;5.88;;;;;;;8.71;100.00;100147.25;6082386;19;19998;-69
2023/10/25 00:09:52;;;;;;;13.65;5.78;;;;;;;8.66;100.00;100140.50;6085177;19;20456;-69
2023/10/25 00:11:57;;;;;;;12.50;5.70;;;;;;;8.69;100.00;100137.75;6085154;19;20018;-70
2023/10/25 00:14:03;;;;;;;14.05;7.00;;;;;;;8.73;100.00;100134.09;6085201;19;20263;-70
2023/10/25 00:16:08;;;;;;;12.90;6.13;;;;;;;8.68;100.00;100129.06;6075601;19;20024;-69
2023/10/25 00:18:13;;;;;;;15.55;7.82;;;;;;;8.84;100.00;100131.84;6085411;19;20494;-70
2023/10/25 00:20:18;;;;;;;15.77;7.22;;;;;;;8.81;100.00;100131.97;6085428;19;20016;-69
2023/10/25 00:22:23;;;;;;;14.93;6.90;;;;;;;8.85;100.00;100133.56;6083358;19;20015;-70
2023/10/25 00:24:28;;;;;;;15.65;7.20;;;;;;;8.87;100.00;100129.06;6085308;19;20664;-69
2023/10/25 00:26:36;;;;;;;14.18;7.07;;;;;;;8.92;100.00;100124.47;6083942;19;20420;-69
2023/10/25 00:28:41;;;;;;;17.20;6.88;;;;;;;8.91;100.00;100129.81;6084050;19;20271;-69
2023/10/25 00:30:44;;;;;;;14.05;7.10;;;;;;;8.87;100.00;100131.69;6080120;19;19999;-69
2023/10/25 00:32:49;;;;;;;17.48;7.53;;;;;;;8.88;100.00;100132.56;6081841;19;20010;-70
2023/10/25 00:34:55;;;;;;;18.70;6.50;;;;;;;8.93;100.00;100131.44;6075231;19;20010;-70
2023/10/25 00:37:00;;;;;;;18.83;8.52;;;;;;;8.93;100.00;100136.69;6084565;19;20006;-70
2023/10/25 00:39:05;;;;;;;19.10;7.95;;;;;;;8.92;100.00;100134.13;6084505;19;20459;-70
2023/10/25 00:41:10;;;;;;;16.08;8.02;;;;;;;8.96;100.00;100133.06;6078059;19;20006;-69
2023/10/25 00:43:20;;;;;;;20.67;7.22;;;;;;;8.84;100.00;100134.47;6079700;19;20015;-69
2023/10/25 00:45:25;;;;;;;18.88;8.02;;;;;;;8.98;100.00;100133.88;6082699;19;20241;-72
2023/10/25 00:47:31;;;;;;;16.90;6.90;;;;;;;8.92;100.00;100134.97;6075089;19;20014;-70
2023/10/25 00:49:37;;;;;;;18.42;7.28;;;;;;;8.94;100.00;100127.03;6083452;19;20527;-70
2023/10/25 00:51:39;;;;;;;18.50;7.65;;;;;;;8.94;100.00;100124.44;6080358;19;20011;-70
2023/10/25 00:53:45;;;;;;;;;;;;;;;9.00;100.00;100125.00;6081552;19;20015;-70
2023/10/25 00:55:50;;;;;;;15.52;6.80;;;;;;;8.97;100.00;100121.66;6082680;19;19921;-71
2023/10/25 00:57:55;;;;;;;18.15;7.80;;;;;;;9.00;100.00;100116.28;6083355;19;20035;-69
2023/10/25 01:00:03;;;;;;;16.10;7.32;;;;;;;8.97;100.00;100114.66;6082083;19;20465;-70
2023/10/25 01:02:10;;;;;;;15.77;6.65;;;;;;;8.96;100.00;100106.88;6084739;19;20427;-69
2023/10/25 01:04:15;;;;;;;19.50;8.15;;;;;;;8.96;100.00;100110.34;6084159;19;20486;-71
2023/10/25 01:06:18;;;;;;;19.30;7.70;;;;;;;8.93;100.00;100115.72;6076079;19;20013;-70
2023/10/25 01:08:24;;;;;;;19.30;7.43;;;;;;;8.96;100.00;100101.63;6082279;19;20479;-70
2023/10/25 01:10:27;;;;;;;17.20;7.40;;;;;;;8.99;100.00;100098.88;6083972;19;20006;-70
2023/10/25 01:12:32;;;;;;;14.73;7.10;;;;;;;9.02;100.00;100101.34;6081836;19;20014;-70
2023/10/25 01:14:37;;;;;;;21.20;7.45;;;;;;;8.99;100.00;100104.09;6086247;19;20084;-70
2023/10/25 01:16:44;;;;;;;21.30;7.28;;;;;;;8.95;100.00;100099.91;6076737;19;20105;-71
2023/10/25 01:18:49;;;;;;;14.60;6.80;;;;;;;8.89;100.00;100102.81;6072549;19;20046;-69
2023/10/25 01:20:54;;;;;;;16.38;7.57;;;;;;;8.85;100.00;100091.63;6091717;19;20011;-69
2023/10/25 01:23:02;;;;;;;16.63;7.43;;;;;;;8.84;100.00;100089.91;6091296;19;20515;-69
2023/10/25 01:25:08;;;;;;;17.58;7.35;;;;;;;8.86;100.00;100097.72;6090702;19;20099;-70
2023/10/25 01:27:13;;;;;;;16.40;6.93;;;;;;;8.83;100.00;100087.38;6090801;19;20389;-69
2023/10/25 01:29:18;;;;;;;16.17;7.72;;;;;;;8.83;100.00;100090.84;6090023;19;20023;-69
2023/10/25 01:31:23;;;;;;;16.40;7.57;;;;;;;8.79;100.00;100087.53;6088325;19;20595;-70
2023/10/25 01:33:28;;;;;;;16.27;7.47;;;;;;;8.76;100.00;100087.66;6088761;19;20023;-70
2023/10/25 01:35:33;;;;;;;18.88;6.78;;;;;;;8.74;100.00;100086.00;6080486;19;20011;-70
2023/10/25 01:37:39;;;;;;;14.77;8.00;;;;;;;8.72;100.00;100087.88;6090538;19;20007;-68
2023/10/25 01:39:46;;;;;;;19.92;7.70;;;;;;;8.72;100.00;100082.63;6091201;19;20069;-69
2023/10/25 01:41:52;;;;;;;15.93;6.30;;;;;;;8.63;100.00;100083.88;6087408;19;20082;-69
2023/10/25 01:43:57;;;;;;;17.30;6.95;;;;;;;8.60;100.00;100083.19;6090866;19;20007;-69
2023/10/25 01:46:02;;;;;;;17.70;7.05;;;;;;;8.65;100.00;100075.97;6089306;19;20003;-70
2023/10/25 01:48:08;;;;;;;18.83;7.60;;;;;;;8.62;100.00;100063.84;6079876;19;20003;-69
2023/10/25 01:50:13;;;;;;;22.48;7.70;;;;;;;8.59;100.00;100069.22;6086146;19;20018;-70
2023/10/25 01:52:18;;;;;;;12.80;6.03;;;;;;;8.51;100.00;100066.97;6086890;19;20006;-70
2023/10/25 01:54:23;;;;;;;13.32;6.50;;;;;;;8.52;100.00;100073.03;6086199;19;20546;-69
2023/10/25 01:56:31;;;;;;;19.25;6.85;;;;;;;8.47;100.00;100072.38;6087550;19;20035;-70
2023/10/25 01:58:36;;;;;;;17.15;6.80;;;;;;;8.44;100.00;100068.13;6087695;19;20010;-71
2023/10/25 02:00:41;;;;;;;17.25;6.68;;;;;;;8.34;100.00;100061.56;6087901;19;20271;-69
2023/10/25 02:02:49;;;;;;;13.00;6.85;;;;;;;8.30;100.00;100058.25;6088052;19;20007;-70
2023/10/25 02:04:54;;;;;;;15.40;6.82;;;;;;;8.24;100.00;100055.91;6084542;19;20013;-69
2023/10/25 02:06:57;;;;;;;11.52;5.55;;;;;;;8.16;100.00;100059.75;6078277;19;20028;-69
2023/10/25 02:09:02;;;;;;;11.02;5.75;;;;;;;8.05;100.00;100053.19;6088545;19;20010;-69
2023/10/25 02:11:08;;;;;;;14.57;5.60;;;;;;;7.99;100.00;100055.25;6084525;19;20002;-70
2023/10/25 02:13:16;;;;;;;15.10;6.85;;;;;;;7.99;100.00;100050.00;6086862;19;20460;-70
2023/10/25 02:15:21;;;;;;;12.55;5.65;;;;;;;8.09;100.00;100046.94;6084568;19;20024;-69
2023/10/25 02:17:26;;;;;;;19.00;6.88;;;;;;;8.07;100.00;100048.75;6085632;19;20014;-70
2023/10/25 02:19:29;;;;;;;15.77;6.60;;;;;;;8.02;100.00;100047.25;6085211;19;20256;-70
2023/10/25 02:21:35;;;;;;;14.48;6.68;;;;;;;7.94;100.00;100044.13;6084521;19;20124;-71
2023/10/25 02:23:42;;;;;;;11.32;6.05;;;;;;;7.92;100.00;100041.56;6087187;19;20014;-69
2023/10/25 02:25:47;;;;;;;13.55;6.32;;;;;;;7.90;100.00;100043.41;6088278;19;20475;-69
2023/10/25 02:27:52;;;;;;;15.10;6.07;;;;;;;7.90;100.00;100032.94;6086063;19;20003;-69
2023/10/25 02:29:59;;;;;;;12.77;6.72;;;;;;;7.93;100.00;100039.81;6087697;19;20064;-69
2023/10/25 02:32:07;;;;;;;12.30;5.82;;;;;;;7.92;100.00;100033.72;6085492;19;20006;-69
2023/10/25 02:34:12;;;;;;;13.25;5.95;;;;;;;7.84;100.00;100028.81;6087595;19;20520;-69
2023/10/25 02:36:17;;;;;;;20.85;6.15;;;;;;;7.87;100.00;100033.94;6087049;19;20102;-69
2023/10/25 02:38:22;;;;;;;15.55;6.15;;;;;;;7.85;100.00;100033.13;6080946;19;20437;-70
2023/10/25 02:40:27;;;;;;;18.40;6.50;;;;;;;7.89;100.00;100034.69;6088295;19;20006;-70
2023/10/25 02:42:33;;;;;;;18.58;7.75;;;;;;;7.87;100.00;100031.31;6086919;19;20527;-71
2023/10/25 02:44:38;;;;;;;14.52;6.80;;;;;;;7.85;100.00;100030.53;6087852;19;20502;-69
2023/10/25 02:46:45;;;;;;;18.50;7.07;;;;;;;7.94;100.00;100033.66;6089516;19;20013;-69
2023/10/25 02:48:52;;;;;;;17.95;7.68;;;;;;;7.86;100.00;100031.38;6076131;19;20017;-70
2023/10/25 02:50:57;;;;;;;16.55;7.30;;;;;;;7.86;100.00;100029.59;6079039;19;20006;-69
2023/10/25 02:53:02;;;;;;;18.80;7.47;;;;;;;7.84;100.00;100030.56;6078226;19;20027;-69
2023/10/25 02:55:08;;;;;;;23.75;8.20;;;;;;;7.85;100.00;100025.28;6088464;19;20321;-69
2023/10/25 02:57:10;;;;;;;19.90;7.90;;;;;;;7.82;100.00;100024.53;6088634;19;20010;-69
2023/10/25 02:59:15;;;;;;;19.75;7.53;;;;;;;7.78;100.00;100026.44;6078501;19;20010;-69
2023/10/25 03:01:22;;;;;;;18.13;8.32;;;;;;;7.78;100.00;100023.84;6084730;19;20021;-70
2023/10/25 03:03:31;;;;;;;19.73;9.18;;;;;;;7.73;100.00;100020.56;6077634;19;20010;-70
2023/10/25 03:05:36;;;;;;;19.38;8.55;;;;;;;7.74;100.00;100018.78;6084424;19;20038;-69
2023/10/25 03:07:41;;;;;;;22.70;9.13;;;;;;;7.75;100.00;100018.75;6084972;19;20006;-69
2023/10/25 03:09:46;;;;;;;14.30;7.68;;;;;;;7.72;100.00;100024.09;6077778;19;20370;-70
2023/10/25 03:11:51;;;;;;;24.20;9.32;;;;;;;7.78;100.00;100021.22;6082387;19;20034;-70
2023/10/25 03:13:56;;;;;;;15.05;8.13;;;;;;;7.79;100.00;100022.06;6087534;19;20007;-71
2023/10/25 03:16:01;;;;;;;21.80;8.27;;;;;;;7.77;100.00;100016.91;6084964;19;20093;-70
2023/10/25 03:18:07;;;;;;;18.08;9.18;;;;;;;7.75;100.00;100010.06;6076175;19;20502;-71
2023/10/25 03:20:15;;;;;;;19.65;8.90;;;;;;;7.79;100.00;100015.06;6084770;19;20690;-69
2023/10/25 03:22:20;;;;;;;21.90;9.05;;;;;;;7.80;100.00;100011.56;6086737;19;20002;-68
2023/10/25 03:24:25;;;;;;;18.67;8.90;;;;;;;7.79;100.00;100002.00;6085456;19;20017;-70
2023/10/25 03:26:30;;;;;;;18.45;8.35;;;;;;;7.75;100.00;99991.75;6078861;19;20021;-69
2023/10/25 03:28:36;;;;;;;18.55;8.95;;;;;;;7.74;100.00;99988.28;6082872;19;20070;-69
2023/10/25 03:30:44;;;;;;;20.38;9.10;;;;;;;7.69;100.00;99983.25;6077966;19;20010;-70
2023/10/25 03:32:48;;;;;;;21.38;8.85;;;;;;;7.74;100.00;99985.66;6084658;19;20506;-70
2023/10/25 03:34:53;;;;;;;20.35;8.80;;;;;;;7.69;100.00;99988.47;6085895;19;20018;-70
2023/10/25 03:37:01;;;;;;;17.33;8.30;;;;;;;7.68;100.00;99991.13;6074995;19;20361;-69
2023/10/25 03:39:05;;;;;;;28.85;8.85;;;;;;;7.65;100.00;99986.88;6087359;19;20336;-70
2023/10/25 03:41:10;;;;;;;22.38;8.80;;;;;;;7.68;100.00;99986.75;6088221;19;20476;-71
2023/10/25 03:43:15;;;;;;;18.80;8.23;;;;;;;7.73;100.00;99983.94;6085116;19;20011;-68
2023/10/25 03:45:21;;;;;;;18.90;8.60;;;;;;;7.78;100.00;99978.53;6088080;19;20064;-68
2023/10/25 03:47:28;;;;;;;23.73;7.75;;;;;;;7.87;100.00;99981.63;6087169;19;20102;-71
2023/10/25 03:49:33;;;;;;;15.05;8.98;;;;;;;7.82;100.00;99980.09;6080556;19;20021;-70
2023/10/25 03:51:38;;;;;;;19.40;8.85;;;;;;;7.81;100.00;99975.78;6084633;19;20496;-69
2023/10/25 03:53:46;;;;;;;23.67;8.65;;;;;;;7.83;100.00;99974.78;6079139;19;20015;-70
2023/10/25 03:55:56;;;;;;;20.88;8.02;;;;;;;7.77;100.00;99964.59;6088421;19;20011;-70
2023/10/25 03:58:01;;;;;;;16.40;8.65;;;;;;;7.77;100.00;99966.38;6086138;19;20489;-70
2023/10/25 04:00:06;;;;;;;21.13;9.00;;;;;;;7.80;100.00;99964.47;6088903;19;20007;-70
2023/10/25 04:02:09;;;;;;;18.13;8.52;;;;;;;7.76;100.00;99960.28;6088458;19;20019;-70
2023/10/25 04:04:13;;;;;;;18.80;9.25;;;;;;;7.72;100.00;99966.56;6087627;19;20020;-70
2023/10/25 04:06:18;;;;;;;16.33;8.32;;;;;;;7.68;100.00;99959.75;6084727;19;20035;-71
2023/10/25 04:08:24;;;;;;;22.75;8.25;;;;;;;7.65;100.00;99958.13;6085666;19;20084;-70
2023/10/25 04:10:33;;;;;;;14.90;8.15;;;;;;;7.67;100.00;99952.84;6086713;19;20813;-70
2023/10/25 04:12:38;;;;;;;21.65;9.63;;;;;;;7.66;100.00;99949.38;6077081;19;20011;-70
2023/10/25 04:14:44;;;;;;;18.90;8.05;;;;;;;7.62;100.00;99949.56;6083607;19;20377;-70
2023/10/25 04:16:49;;;;;;;22.35;8.57;;;;;;;7.60;100.00;99948.78;6084605;19;20039;-69
2023/10/25 04:18:54;;;;;;;15.15;7.63;;;;;;;7.56;100.00;99942.84;6085582;19;20027;-69
2023/10/25 04:20:58;;;;;;;16.00;7.68;;;;;;;7.58;100.00;99951.47;6077331;19;20470;-69
2023/10/25 04:23:03;;;;;;;16.98;7.90;;;;;;;7.58;100.00;99948.88;6074164;19;20333;-71
2023/10/25 04:25:09;;;;;;;16.48;8.40;;;;;;;7.58;100.00;99954.09;6081968;19;20020;-69
2023/10/25 04:27:17;;;;;;;17.48;8.45;;;;;;;7.58;100.00;99941.03;6083005;19;20011;-69
2023/10/25 04:29:24;;;;;;;17.52;7.82;;;;;;;7.67;100.00;99942.38;6085447;19;20018;-71
2023/10/25 04:31:29;;;;;;;22.38;8.85;;;;;;;7.75;100.00;99945.50;6084743;19;20002;-69
2023/10/25 04:33:34;;;;;;;21.13;8.82;;;;;;;7.80;100.00;99938.31;6084660;19;20432;-72
2023/10/25 04:35:41;;;;;;;18.77;9.43;;;;;;;7.81;100.00;99940.00;6083757;19;20010;-71
2023/10/25 04:37:46;;;;;;;19.58;8.65;;;;;;;7.81;100.00;99937.38;6083004;19;20479;-69
2023/10/25 04:39:51;;;;;;;17.30;8.68;;;;;;;7.88;100.00;99927.53;6077622;19;19998;-69
2023/10/25 04:41:56;;;;;;;23.80;10.23;;;;;;;7.93;100.00;99922.09;6081319;19;20010;-70
2023/10/25 04:44:04;;;;;;;23.30;9.20;;;;;;;7.93;100.00;99919.47;6085040;19;20010;-70
2023/10/25 04:46:14;;;;;;;19.52;9.55;;;;;;;7.97;100.00;99915.78;6083171;19;20029;-69
2023/10/25 04:48:20;;;;;;;19.15;10.20;;;;;;;7.99;100.00;99924.44;6082954;19;20011;-69
2023/10/25 04:50:25;;;;;;;17.85;8.77;;;;;;;8.07;100.00;99915.31;6079053;19;20014;-70
2023/10/25 04:52:30;;;;;;;18.88;8.52;;;;;;;8.14;100.00;99921.13;6075821;19;20017;-70
2023/10/25 04:54:35;;;;;;;22.45;9.48;;;;;;;8.07;100.00;99909.25;6078518;19;19999;-70
2023/10/25 04:56:37;;;;;;;18.80;9.02;;;;;;;8.06;100.00;99907.56;6082883;19;20011;-70
2023/10/25 04:58:42;;;;;;;19.75;9.07;;;;;;;8.08;100.00;99906.56;6085535;19;20530;-70
2023/10/25 05:00:50;;;;;;;17.30;8.80;;;;;;;8.11;100.00;99903.81;6083895;19;20048;-70
2023/10/25 05:02:57;;;;;;;19.10;8.10;;;;;;;8.10;100.00;99904.69;6083051;19;20011;-71
2023/10/25 05:05:02;;;;;;;23.73;9.85;;;;;;;8.12;100.00;99892.41;6083504;19;20568;-70
2023/10/25 05:07:08;;;;;;;18.67;8.57;;;;;;;8.21;100.00;99901.59;6081873;19;20015;-68
2023/10/25 05:09:14;;;;;;;19.42;9.82;;;;;;;8.20;100.00;99884.22;6086580;19;20385;-71
2023/10/25 05:11:21;;;;;;;22.23;8.02;;;;;;;8.12;100.00;99892.41;6072972;19;20498;-71
2023/10/25 05:13:27;;;;;;;19.90;8.25;;;;;;;8.17;100.00;99891.34;6080951;19;20010;-70
2023/10/25 05:15:31;;;;;;;22.90;8.85;;;;;;;8.18;100.00;99886.03;6082940;19;20022;-69
2023/10/25 05:17:40;;;;;;;17.52;9.38;;;;;;;8.20;100.00;99883.38;6083362;19;19999;-69
2023/10/25 05:19:43;;;;;;;20.27;8.82;;;;;;;8.22;100.00;99885.00;6084698;19;20007;-69
2023/10/25 05:21:50;;;;;;;18.90;8.50;;;;;;;8.20;100.00;99892.06;6076028;19;20367;-69
2023/10/25 05:23:56;;;;;;;22.70;8.63;;;;;;;8.24;100.00;99884.91;6081932;19;20463;-69
2023/10/25 05:26:03;;;;;;;16.77;9.05;;;;;;;8.25;100.00;99882.22;6084567;19;20508;-70
2023/10/25 05:28:11;;;;;;;19.45;8.68;;;;;;;8.25;100.00;99877.00;6073504;19;20007;-70
2023/10/25 05:30:20;;;;;;;16.58;8.27;;;;;;;8.29;100.00;99881.19;6081900;19;20006;-70
2023/10/25 05:32:27;;;;;;;21.48;8.90;;;;;;;8.25;100.00;99877.00;6081805;19;20003;-70
2023/10/25 05:34:36;;;;;;;14.77;7.60;;;;;;;8.30;100.00;99872.41;6082476;19;20614;-70
2023/10/25 05:36:41;;;;;;;15.48;7.80;;;;;;;8.32;100.00;99878.41;6083850;19;20012;-69
2023/10/25 05:38:47;;;;;;;16.40;6.90;;;;;;;8.31;100.00;99866.22;6083450;19;20007;-70
2023/10/25 05:40:53;;;;;;;14.10;8.15;;;;;;;8.32;100.00;99859.22;6082660;19;20030;-71
2023/10/25 05:42:59;;;;;;;15.77;7.30;;;;;;;8.31;100.00;99860.16;6082131;19;20010;-70
2023/10/25 05:45:04;;;;;;;19.52;8.15;;;;;;;8.31;100.00;99855.75;6076347;19;20066;-69
2023/10/25 05:47:09;;;;;;;17.73;8.25;;;;;;;8.31;100.00;99866.22;6075921;19;20459;-69
2023/10/25 05:49:12;;;;;;;13.88;6.72;;;;;;;8.32;100.00;99857.47;6081260;19;20023;-68
2023/10/25 05:51:20;;;;;;;16.55;7.50;;;;;;;8.34;100.00;99852.16;6081652;19;20015;-71
2023/10/25 05:53:26;;;;;;;18.13;7.60;;;;;;;8.33;100.00;99864.41;6074823;19;20047;-69
2023/10/25 05:55:32;;;;;;;18.05;7.95;;;;;;;8.36;100.00;99853.78;6082140;19;20019;-69
2023/10/25 05:57:37;;;;;;;15.10;7.20;;;;;;;8.34;100.00;99847.75;6080598;19;20150;-70
2023/10/25 05:59:43;;;;;;;17.77;7.28;;;;;;;8.32;100.00;99847.00;6081757;19;20007;-69
2023/10/25 06:01:51;;;;;;;15.27;6.97;;;;;;;8.32;100.00;99839.16;6083349;19;22350;-70
2023/10/25 06:04:01;;;;;;;12.98;6.00;;;;;;;8.39;100.00;99831.00;6079445;19;20007;-69
2023/10/25 06:06:12;;;;;;;13.32;7.22;;;;;;;8.41;100.00;99834.44;6086265;19;20014;-71
2023/10/25 06:08:21;;;;;;;15.32;7.88;;;;;;;8.39;100.00;99828.38;6088429;19;20023;-70
2023/10/25 06:10:27;;;;;;;18.52;7.25;;;;;;;8.38;100.00;99830.16;6088280;19;20430;-70
2023/10/25 06:12:34;;;;;;;14.35;6.85;;;;;;;8.38;100.00;99824.91;6079156;19;20006;-70
2023/10/25 06:14:40;;;;;;;14.00;6.93;;;;;;;8.39;100.00;99821.41;6085372;19;20294;-70
2023/10/25 06:16:42;;;;;;;13.07;7.40;;;;;;;8.43;100.00;99824.75;6087474;19;19999;-70
2023/10/25 06:18:48;;;;;;;16.80;6.28;;;;;;;8.44;100.00;99824.66;6088023;19;20007;-70
2023/10/25 06:20:53;;;;;;;13.50;6.82;;;;;;;8.46;100.00;99824.59;6087960;19;20387;-70
2023/10/25 06:23:00;;;;;;;12.98;6.30;;;;;;;8.42;100.00;99820.41;6080408;19;19998;-70
2023/10/25 06:25:09;;;;;;;15.55;7.03;;;;;;;8.44;100.00;99826.44;6088849;19;20024;-70
2023/10/25 06:27:23;;;;;;;14.20;6.80;;;;;;;8.54;100.00;99820.66;6089793;19;20010;-71
2023/10/25 06:29:27;;;;;;;13.13;6.95;;;;;;;8.52;100.00;99819.03;5987880;19;2005716;-71
2023/10/25 06:31:37;;;;;;;13.55;7.03;;;;;;;8.56;100.00;99815.38;6089491;19;20014;-73
2023/10/25 06:33:45;;;;;;;13.25;6.90;;;;;;;8.54;100.00;99814.59;6088380;19;20605;-70
2023/10/25 06:35:51;;;;;;;14.20;6.82;;;;;;;8.55;100.00;99822.34;6090340;19;20018;-71
2023/10/25 06:37:59;;;;;;;13.88;7.05;;;;;;;8.60;100.00;99816.91;6088771;19;20013;-71
2023/10/25 06:40:17;;;;;;;15.07;5.68;;;;;;;8.57;100.00;99810.03;6089904;19;20042;-73
2023/10/25 06:42:20;;;;;;;14.80;7.25;;;;;;;8.59;100.00;99809.13;6089979;19;20014;-70
2023/10/25 06:44:26;;;;;;;18.20;7.50;;;;;;;8.59;100.00;99807.34;6090241;19;20286;-71
2023/10/25 06:46:32;;;;;;;16.00;8.13;;;;;;;8.58;100.00;99800.41;6079316;19;20014;-69
2023/10/25 06:48:37;;;;;;;17.10;7.05;;;;;;;8.61;100.00;99797.66;6085886;19;20086;-69
2023/10/25 06:50:46;;;;;;;15.88;6.85;;;;;;;8.62;100.00;99799.34;6088506;19;20006;-69
2023/10/25 06:52:51;;;;;;;13.50;6.68;;;;;;;8.64;100.00;99794.88;6066891;19;20023;-69
2023/10/25 06:54:57;;;;;;;18.63;7.07;;;;;;;8.63;100.00;99795.78;6086507;19;20007;-71
2023/10/25 06:57:06;;;;;;;13.40;6.28;;;;;;;8.62;100.00;99801.97;6090317;19;20496;-69
2023/10/25 06:59:12;;;;;;;12.45;5.93;;;;;;;8.66;100.00;99790.44;6089049;19;20023;-70
2023/10/25 07:01:23;;;;;;;15.43;7.05;;;;;;;8.72;100.00;99787.50;6079125;19;19998;-70
2023/10/25 07:03:34;;;;;;;16.70;6.65;;;;;;;8.70;100.00;99778.03;6076546;19;20034;-69
2023/10/25 07:05:43;;;;;;;13.65;6.72;;;;;;;8.70;100.00;99778.84;6086090;19;20378;-70
2023/10/25 07:07:51;;;;;;;16.02;7.38;;;;;;;8.70;100.00;99785.88;6086459;19;20149;-70
2023/10/25 07:09:58;;;;;;;17.10;6.65;;;;;;;8.69;100.00;99779.78;6085457;19;20062;-70
2023/10/25 07:12:06;;;;;;;14.65;6.53;;;;;;;8.67;100.00;99784.25;6083110;19;20556;-71
2023/10/25 07:14:11;;;;;;;15.68;8.20;;;;;;;8.72;100.00;99786.66;6089001;19;20395;-71
2023/10/25 07:16:16;;;;;;;14.27;7.10;;;;;;;8.73;100.00;99785.72;6085668;19;19998;-70
2023/10/25 07:18:22;;;;;;;14.07;6.63;;;;;;;8.72;100.00;99777.03;6084228;19;20010;-74
2023/10/25 07:20:27;;;;;;;15.07;7.35;;;;;;;8.74;100.00;99777.81;6077363;19;20037;-71
2023/10/25 07:22:31;;;;;;;15.68;6.80;;;;;;;8.81;100.00;99774.84;6086761;19;20002;-71
2023/10/25 07:24:36;;;;;;;18.67;7.18;;;;;;;8.82;100.00;99780.03;6086402;19;20015;-71
2023/10/25 07:26:41;;;;;;;17.13;7.50;;;;;;;8.87;100.00;99785.03;6085050;19;20014;-71
2023/10/25 07:28:49;;;;;;;14.60;6.75;;;;;;;8.87;100.00;99792.88;6084829;19;20336;-71
2023/10/25 07:30:54;;;;;;;16.00;6.25;;;;;;;8.87;100.00;99780.63;6075383;19;20526;-70
2023/10/25 07:32:59;;;;;;;16.08;6.80;;;;;;;8.85;100.00;99781.66;6086109;19;20006;-70
2023/10/25 07:35:06;;;;;;;18.70;7.13;;;;;;;8.83;100.00;99778.25;6085692;19;20498;-69
2023/10/25 07:37:08;;;;;;;16.88;7.15;;;;;;;8.90;100.00;99774.38;6084396;19;20011;-69
2023/10/25 07:39:15;;;;;;;19.60;9.45;;;;;;;8.84;100.00;99772.09;6085601;19;20006;-71
2023/10/25 07:41:20;;;;;;;17.50;7.53;;;;;;;8.82;100.00;99772.19;6086801;19;20431;-70
2023/10/25 07:43:25;;;;;;;14.95;7.50;;;;;;;8.83;100.00;99763.38;6087907;19;20011;-70
2023/10/25 07:45:35;;;;;;;17.02;7.85;;;;;;;8.89;100.00;99762.22;6080619;19;20002;-70
2023/10/25 07:47:40;;;;;;;19.20;8.40;;;;;;;8.90;100.00;99751.69;6087212;19;20011;-68
2023/10/25 07:49:48;;;;;;;14.43;6.68;;;;;;;8.88;100.00;99756.13;6078091;19;20020;-69
2023/10/25 07:51:54;;;;;;;14.38;7.25;;;;;;;8.90;100.00;99759.53;6085872;19;20018;-70
2023/10/25 07:53:59;;;;;;;16.80;6.90;;;;;;;8.91;100.00;99758.59;6080179;19;20580;-69
2023/10/25 07:56:05;;;;;;;14.07;6.22;;;;;;;8.92;100.00;99756.81;6083910;19;20082;-68
2023/10/25 07:58:14;;;;;;;18.20;7.32;;;;;;;8.93;100.00;99751.50;6084708;19;20018;-69
2023/10/25 08:00:22;;;;;;;16.92;7.65;;;;;;;8.93;100.00;99748.06;6086963;19;20007;-70
2023/10/25 08:02:29;;;;;;;17.67;7.55;;;;;;;8.93;100.00;99742.81;6085676;19;20019;-69
2023/10/25 08:04:34;;;;;;;14.88;6.82;;;;;;;8.97;100.00;99747.78;6084992;19;20011;-69
2023/10/25 08:06:39;;;;;;;18.58;7.05;;;;;;;8.99;100.00;99739.88;6086184;19;20010;-70
2023/10/25 08:08:44;;;;;;;16.73;8.02;;;;;;;8.99;100.00;99739.88;6085309;19;20002;-70
2023/10/25 08:10:49;;;;;;;16.85;7.55;;;;;;;9.02;100.00;99731.84;6083205;19;20003;-71
2023/10/25 08:12:54;;;;;;;19.15;7.20;;;;;;;9.02;100.00;99734.47;6085812;19;20113;-71
2023/10/25 08:14:59;;;;;;;18.08;7.18;;;;;;;9.04;100.00;99739.63;6077606;19;20343;-69
2023/10/25 08:17:04;;;;;;;14.18;6.75;;;;;;;9.06;100.00;99741.25;6081493;19;20007;-71
2023/10/25 08:19:12;;;;;;;15.40;7.05;;;;;;;9.12;100.00;99737.47;6084549;19;20007;-69
2023/10/25 08:21:18;;;;;;;17.30;7.65;;;;;;;9.08;100.00;99728.91;6084775;19;20490;-70
2023/10/25 08:23:20;;;;;;;13.38;6.93;;;;;;;9.14;100.00;99731.22;6084702;19;20007;-68
2023/10/25 08:25:26;;;;;;;15.52;6.55;;;;;;;9.13;100.00;99728.66;6076775;19;20357;-69
2023/10/25 08:27:31;;;;;;;15.52;7.07;;;;;;;9.13;100.00;99724.25;6077407;19;20466;-69
2023/10/25 08:29:35;;;;;;;20.63;7.57;;;;;;;9.16;100.00;99733.72;6083087;19;20100;-69
2023/10/25 08:31:40;;;;;;;18.25;6.72;;;;;;;9.17;100.00;99733.66;6074115;19;20006;-69
2023/10/25 08:33:49;;;;;;;15.75;7.88;;;;;;;9.19;100.00;99739.69;6081845;19;20011;-69
2023/10/25 08:36:05;;;;;;;18.30;7.90;;;;;;;9.21;100.00;99732.56;6084488;19;20014;-70
2023/10/25 08:38:10;;;;;;;17.75;6.72;;;;;;;9.21;100.00;99735.19;6084959;19;20410;-69
2023/10/25 08:40:16;;;;;;;19.30;6.72;;;;;;;9.25;100.00;99733.28;6086448;19;20010;-70
2023/10/25 08:42:23;;;;;;;11.75;5.80;;;;;;;9.22;100.00;99734.28;6084193;19;20070;-69
2023/10/25 08:44:28;;;;;;;13.40;6.57;;;;;;;9.26;100.00;99739.34;6083034;19;20007;-70
2023/10/25 08:46:35;;;;;;;14.63;6.72;;;;;;;9.21;100.00;99734.34;6085841;19;20042;-68
2023/10/25 08:48:40;;;;;;;16.05;7.32;;;;;;;9.21;100.00;99729.94;6077243;19;20011;-68
2023/10/25 08:50:47;;;;;;;14.45;6.35;;;;;;;9.23;100.00;99717.59;6085437;19;20049;-69
2023/10/25 08:52:56;;;;;;;19.15;6.95;;;;;;;9.27;100.00;99720.94;6076833;19;20006;-69
2023/10/25 08:55:01;;;;;;;14.07;6.65;;;;;;;9.27;100.00;99713.06;6088111;19;20014;-69
2023/10/25 08:57:07;;;;;;;10.40;5.95;;;;;;;9.26;100.00;99721.84;6086518;19;20010;-69
2023/10/25 08:59:12;;;;;;;14.15;6.28;;;;;;;9.26;100.00;99716.59;6085817;19;20018;-69
2023/10/25 09:01:21;;;;;;;9.98;5.90;;;;;;;9.32;100.00;99707.56;6078714;19;20026;-69
2023/10/25 09:03:47;;;;;;;13.45;6.32;;;;;;;9.31;100.00;99705.88;6083015;19;20812;-69
2023/10/25 09:05:50;;;;;;;9.75;5.85;;;;;;;9.31;100.00;99706.72;5978123;19;2005954;-69
2023/10/25 09:08:18;;;;;;;15.80;6.25;;;;;;;9.41;100.00;99694.81;6083046;19;20007;-68
2023/10/25 09:10:23;;;;;;;11.55;6.00;;;;;;;9.36;100.00;99696.84;6085878;19;20003;-70
2023/10/25 09:12:29;;;;;;;12.27;5.95;;;;;;;9.37;100.00;99687.19;6080964;19;19999;-70
2023/10/25 09:14:50;;;;;;;11.82;5.75;;;;;;;9.42;100.00;99687.78;6083213;19;20033;-70
2023/10/25 09:16:55;;;;;;;15.05;6.10;;;;;;;9.42;100.00;99686.00;6086192;19;20006;-71
2023/10/25 09:19:05;;;;;;;16.88;6.70;;;;;;;9.41;100.00;99683.47;6085308;19;20026;-69
2023/10/25 09:21:11;;;;;;;11.50;5.75;;;;;;;9.46;100.00;99686.69;6076080;19;20028;-71
2023/10/25 09:23:23;;;;;;;17.17;6.13;;;;;;;9.53;100.00;99682.81;6067821;19;20006;-70
2023/10/25 09:25:32;;;;;;;16.98;5.60;;;;;;;9.48;100.00;99682.22;6082086;19;20002;-70
2023/10/25 09:27:45;;;;;;;18.20;5.88;;;;;;;9.52;100.00;99677.66;6074201;19;20358;-71
2023/10/25 09:29:50;;;;;;;;;;;;;;;9.45;100.00;99669.25;5999639;19;2004800;-68
2023/10/25 09:31:55;;;;;;;13.27;5.85;;;;;;;9.45;100.00;99664.00;6072414;19;19938;-70
2023/10/25 09:34:08;;;;;;;18.55;5.97;;;;;;;9.48;100.00;99661.25;6080883;19;20823;-70
2023/10/25 09:36:13;;;;;;;12.00;5.88;;;;;;;9.47;100.00;99653.44;6075083;19;20022;-71
2023/10/25 09:38:21;;;;;;;12.15;4.97;;;;;;;9.43;100.00;99645.75;6080143;19;20042;-70
2023/10/25 09:40:29;;;;;;;16.10;6.68;;;;;;;9.41;100.00;99652.84;6085283;19;20007;-70
2023/10/25 09:42:35;;;;;;;14.77;6.45;;;;;;;9.49;100.00;99652.44;6090857;19;20014;-71
2023/10/25 09:44:47;;;;;;;12.23;5.72;;;;;;;9.43;100.00;99640.50;6091940;19;20009;-71